createdAt,value
2023-01-13T00:00:29.717Z,99.99
2023-01-13T00:01:29.649Z,99.99
2023-01-13T00:02:29.669Z,99.99
2023-01-13T00:03:29.615Z,99.99
2023-01-13T00:04:29.644Z,99.99
2023-01-13T00:05:29.614Z,99.99
2023-01-13T00:06:29.786Z,99.99
2023-01-13T00:07:29.599Z,99.99
2023-01-13T00:08:29.566Z,99.99
2023-01-13T00:09:29.557Z,99.99
2023-01-13T00:10:29.539Z,99.99
2023-01-13T00:11:29.708Z,99.99
2023-01-13T00:12:29.515Z,99.99
2023-01-13T00:13:29.511Z,99.99
2023-01-13T00:14:29.514Z,99.99
2023-01-13T00:15:29.499Z,99.99
2023-01-13T00:16:29.551Z,99.99
2023-01-13T00:17:29.484Z,99.99
2023-01-13T00:18:29.583Z,99.99
2023-01-13T00:19:29.455Z,99.99
2023-01-13T00:20:29.443Z,99.99
2023-01-13T00:21:29.444Z,99.99
2023-01-13T00:22:29.460Z,99.99
2023-01-13T00:23:29.441Z,99.82
2023-01-13T00:24:29.399Z,99.72
2023-01-13T00:25:29.399Z,99.41
2023-01-13T00:26:29.390Z,99.26
2023-01-13T00:27:29.378Z,99.31
2023-01-13T00:28:29.365Z,99.57
2023-01-13T00:29:29.348Z,99.51
2023-01-13T00:30:29.337Z,99.47
2023-01-13T00:31:29.460Z,99.51
2023-01-13T00:32:29.317Z,99.51
2023-01-13T00:33:29.316Z,99.57
2023-01-13T00:34:29.288Z,99.51
2023-01-13T00:35:29.294Z,99.77
2023-01-13T00:36:29.353Z,99.93
2023-01-13T00:37:29.293Z,99.99
2023-01-13T00:38:29.269Z,99.99
2023-01-13T00:39:29.256Z,99.99
2023-01-13T00:40:29.231Z,99.99
2023-01-13T00:41:29.237Z,99.99
2023-01-13T00:42:29.217Z,99.99
2023-01-13T00:43:29.204Z,99.99
2023-01-13T00:44:29.198Z,99.99
2023-01-13T00:45:29.181Z,99.99
2023-01-13T00:46:29.378Z,99.99
2023-01-13T00:47:29.163Z,99.99
2023-01-13T00:48:29.192Z,99.99
2023-01-13T00:49:29.135Z,99.99
2023-01-13T00:50:29.129Z,99.99
2023-01-13T00:51:29.140Z,99.99
2023-01-13T00:52:29.119Z,99.99
2023-01-13T00:53:29.140Z,99.99
2023-01-13T00:54:29.103Z,99.99
2023-01-13T00:55:29.094Z,99.99
2023-01-13T00:56:39.594Z,99.99
2023-01-13T00:57:29.059Z,99.99
2023-01-13T00:58:29.070Z,99.99
2023-01-13T00:59:29.058Z,99.99
2023-01-13T01:00:29.033Z,99.99
2023-01-13T01:01:29.135Z,99.99
2023-01-13T01:02:29.037Z,99.99
2023-01-13T01:03:29.025Z,99.99
2023-01-13T01:04:28.994Z,99.99
2023-01-13T01:05:28.999Z,99.99
2023-01-13T01:06:28.983Z,99.99
2023-01-13T01:07:28.960Z,99.99
2023-01-13T01:08:28.950Z,99.99
2023-01-13T01:09:28.954Z,99.99
2023-01-13T01:10:28.934Z,99.99
2023-01-13T01:11:29.064Z,99.99
2023-01-13T01:12:28.910Z,99.99
2023-01-13T01:13:28.903Z,99.99
2023-01-13T01:14:28.897Z,99.99
2023-01-13T01:15:28.869Z,99.99
2023-01-13T01:16:28.922Z,99.99
2023-01-13T01:17:28.849Z,99.99
2023-01-13T01:18:28.859Z,99.99
2023-01-13T01:19:28.838Z,99.99
2023-01-13T01:20:28.829Z,99.99
2023-01-13T01:21:28.835Z,99.99
2023-01-13T01:22:28.808Z,99.99
2023-01-13T01:23:28.795Z,99.99
2023-01-13T01:24:28.780Z,99.99
2023-01-13T01:25:28.773Z,99.99
2023-01-13T01:26:28.904Z,99.99
2023-01-13T01:27:28.746Z,99.99
2023-01-13T01:28:28.737Z,99.99
2023-01-13T01:29:28.736Z,99.99
2023-01-13T01:30:28.727Z,99.99
2023-01-13T01:31:28.853Z,99.99
2023-01-13T01:32:28.704Z,99.99
2023-01-13T01:33:28.692Z,99.99
2023-01-13T01:34:28.680Z,99.99
2023-01-13T01:35:28.676Z,99.99
2023-01-13T01:36:28.710Z,99.99
2023-01-13T01:37:28.679Z,99.99
2023-01-13T01:38:28.646Z,99.99
2023-01-13T01:39:28.640Z,99.99
2023-01-13T01:40:28.625Z,99.99
2023-01-13T01:41:28.642Z,99.99
2023-01-13T01:42:28.606Z,99.99
2023-01-13T01:43:28.594Z,99.99
2023-01-13T01:44:28.621Z,99.99
2023-01-13T01:45:28.572Z,99.99
2023-01-13T01:46:28.614Z,99.99
2023-01-13T01:47:28.559Z,99.99
2023-01-13T01:48:28.552Z,99.99
2023-01-13T01:49:28.537Z,99.99
2023-01-13T01:50:28.521Z,99.99
2023-01-13T01:51:28.606Z,99.99
2023-01-13T01:52:28.498Z,99.99
2023-01-13T01:53:28.488Z,99.99
2023-01-13T01:54:28.489Z,99.99
2023-01-13T01:55:28.471Z,99.99
2023-01-13T01:56:28.485Z,99.99
2023-01-13T01:57:28.456Z,99.99
2023-01-13T01:58:28.453Z,99.99
2023-01-13T01:59:28.439Z,99.99
2023-01-13T02:00:28.509Z,99.99
2023-01-13T02:01:28.592Z,99.99
2023-01-13T02:02:28.473Z,99.99
2023-01-13T02:03:28.395Z,99.99
2023-01-13T02:04:28.393Z,99.99
2023-01-13T02:05:28.369Z,99.99
2023-01-13T02:06:28.385Z,99.99
2023-01-13T02:07:28.345Z,99.99
2023-01-13T02:08:28.342Z,99.99
2023-01-13T02:09:28.339Z,99.99
2023-01-13T02:10:28.323Z,99.99
2023-01-13T02:11:28.480Z,99.99
2023-01-13T02:12:28.332Z,99.99
2023-01-13T02:13:28.301Z,99.99
2023-01-13T02:14:28.277Z,99.99
2023-01-13T02:15:28.270Z,99.99
2023-01-13T02:16:28.308Z,99.99
2023-01-13T02:17:28.251Z,99.99
2023-01-13T02:18:28.264Z,99.99
2023-01-13T02:19:28.230Z,99.99
2023-01-13T02:20:28.227Z,99.99
2023-01-13T02:21:28.202Z,99.99
2023-01-13T02:22:28.206Z,99.99
2023-01-13T02:23:28.204Z,99.99
2023-01-13T02:24:28.184Z,99.99
2023-01-13T02:25:28.205Z,99.99
2023-01-13T02:26:28.162Z,99.99
2023-01-13T02:27:28.173Z,99.99
2023-01-13T02:28:28.142Z,99.99
2023-01-13T02:29:28.126Z,99.99
2023-01-13T02:30:28.159Z,99.99
2023-01-13T02:31:28.148Z,99.99
2023-01-13T02:32:28.133Z,99.99
2023-01-13T02:33:28.088Z,99.99
2023-01-13T02:34:28.071Z,99.99
2023-01-13T02:35:28.066Z,99.99
2023-01-13T02:36:28.055Z,99.99
2023-01-13T02:37:28.133Z,99.99
2023-01-13T02:38:28.032Z,99.99
2023-01-13T02:39:28.024Z,99.99
2023-01-13T02:40:28.014Z,99.99
2023-01-13T02:41:28.013Z,99.99
2023-01-13T02:42:28.024Z,99.99
2023-01-13T02:43:27.999Z,99.99
2023-01-13T02:44:27.971Z,99.99
2023-01-13T02:45:28.007Z,99.99
2023-01-13T02:46:27.949Z,99.99
2023-01-13T02:47:27.973Z,99.99
2023-01-13T02:48:27.929Z,99.99
2023-01-13T02:49:27.919Z,99.99
2023-01-13T02:50:27.915Z,99.99
2023-01-13T02:51:27.905Z,99.99
2023-01-13T02:52:27.918Z,99.99
2023-01-13T02:53:27.877Z,99.99
2023-01-13T02:54:27.870Z,99.99
2023-01-13T02:55:27.903Z,99.99
2023-01-13T02:56:27.870Z,99.99
2023-01-13T02:57:27.842Z,99.99
2023-01-13T02:58:27.827Z,99.99
2023-01-13T02:59:27.790Z,99.99
2023-01-13T03:00:27.712Z,99.99
2023-01-13T03:01:27.756Z,99.99
2023-01-13T03:02:27.750Z,99.99
2023-01-13T03:03:27.647Z,99.99
2023-01-13T03:04:27.629Z,99.99
2023-01-13T03:05:27.632Z,99.99
2023-01-13T03:06:27.610Z,99.99
2023-01-13T03:07:27.625Z,99.99
2023-01-13T03:08:27.629Z,99.99
2023-01-13T03:09:27.597Z,99.99
2023-01-13T03:10:27.632Z,99.99
2023-01-13T03:11:27.575Z,99.99
2023-01-13T03:12:27.545Z,99.99
2023-01-13T03:13:27.569Z,99.99
2023-01-13T03:14:27.528Z,99.99
2023-01-13T03:15:27.566Z,99.99
2023-01-13T03:16:27.576Z,99.99
2023-01-13T03:17:27.528Z,99.99
2023-01-13T03:18:27.490Z,99.99
2023-01-13T03:19:27.500Z,99.99
2023-01-13T03:20:27.498Z,99.99
2023-01-13T03:21:27.483Z,99.99
2023-01-13T03:22:27.495Z,99.99
2023-01-13T03:23:27.443Z,99.99
2023-01-13T03:24:27.447Z,99.99
2023-01-13T03:25:27.449Z,99.99
2023-01-13T03:26:27.437Z,99.99
2023-01-13T03:27:27.399Z,99.99
2023-01-13T03:28:27.427Z,99.99
2023-01-13T03:29:27.389Z,99.99
2023-01-13T03:30:27.409Z,99.99
2023-01-13T03:31:27.371Z,97.87
2023-01-13T03:32:27.360Z,97.66
2023-01-13T03:33:27.339Z,97.66
2023-01-13T03:34:28.137Z,98.28
2023-01-13T03:35:27.321Z,98.53
2023-01-13T03:36:27.304Z,99.56
2023-01-13T03:37:27.333Z,97.61
2023-01-13T03:38:27.305Z,98.12
2023-01-13T03:39:27.294Z,97.19
2023-01-13T03:40:27.269Z,97.71
2023-01-13T03:41:27.257Z,98.63
2023-01-13T03:42:27.253Z,97.86
2023-01-13T03:43:27.236Z,97.19
2023-01-13T03:44:27.221Z,97.55
2023-01-13T03:45:27.222Z,96.62
2023-01-13T03:46:27.201Z,96.93
2023-01-13T03:47:27.225Z,97.44
2023-01-13T03:48:27.186Z,96.83
2023-01-13T03:49:27.179Z,96.42
2023-01-13T03:50:27.162Z,96.52
2023-01-13T03:51:27.156Z,96.56
2023-01-13T03:52:27.165Z,95.80
2023-01-13T03:53:27.137Z,95.02
2023-01-13T03:54:27.119Z,95.43
2023-01-13T03:55:27.116Z,96.36
2023-01-13T03:56:27.102Z,97.18
2023-01-13T03:57:27.112Z,97.49
2023-01-13T03:58:27.075Z,96.88
2023-01-13T03:59:27.075Z,96.56
2023-01-13T04:00:27.061Z,96.77
2023-01-13T04:01:27.164Z,97.60
2023-01-13T04:02:27.049Z,98.00
2023-01-13T04:03:27.055Z,96.97
2023-01-13T04:04:27.028Z,97.60
2023-01-13T04:05:27.013Z,98.32
2023-01-13T04:06:27.007Z,98.57
2023-01-13T04:07:27.027Z,97.64
2023-01-13T04:08:27.016Z,98.46
2023-01-13T04:09:26.970Z,99.18
2023-01-13T04:10:26.964Z,99.49
2023-01-13T04:11:26.947Z,99.08
2023-01-13T04:12:26.936Z,98.15
2023-01-13T04:13:26.963Z,95.89
2023-01-13T04:14:26.936Z,96.61
2023-01-13T04:15:26.941Z,94.65
2023-01-13T04:16:26.912Z,95.17
2023-01-13T04:17:26.898Z,94.76
2023-01-13T04:18:26.887Z,94.85
2023-01-13T04:19:26.900Z,93.52
2023-01-13T04:20:26.862Z,94.03
2023-01-13T04:21:26.850Z,94.03
2023-01-13T04:22:26.836Z,91.56
2023-01-13T04:23:26.936Z,92.18
2023-01-13T04:24:26.836Z,92.90
2023-01-13T04:25:26.800Z,93.83
2023-01-13T04:26:26.800Z,92.53
2023-01-13T04:27:26.777Z,92.94
2023-01-13T04:28:26.821Z,92.84
2023-01-13T04:29:26.772Z,92.53
2023-01-13T04:30:26.760Z,90.78
2023-01-13T04:31:26.887Z,92.84
2023-01-13T04:32:26.745Z,93.50
2023-01-13T04:33:26.748Z,92.78
2023-01-13T04:34:28.371Z,93.91
2023-01-13T04:35:26.698Z,94.12
2023-01-13T04:36:26.698Z,95.46
2023-01-13T04:37:26.681Z,94.74
2023-01-13T04:38:26.712Z,95.36
2023-01-13T04:39:26.664Z,96.80
2023-01-13T04:40:26.658Z,96.70
2023-01-13T04:41:26.639Z,96.59
2023-01-13T04:42:26.644Z,96.80
2023-01-13T04:43:26.640Z,96.18
2023-01-13T04:44:26.614Z,96.08
2023-01-13T04:45:26.600Z,96.80
2023-01-13T04:46:26.710Z,95.87
2023-01-13T04:47:26.576Z,95.87
2023-01-13T04:48:26.605Z,95.15
2023-01-13T04:49:26.565Z,94.32
2023-01-13T04:50:26.560Z,95.05
2023-01-13T04:51:26.542Z,96.08
2023-01-13T04:52:26.544Z,96.70
2023-01-13T04:53:26.565Z,95.15
2023-01-13T04:54:26.528Z,94.12
2023-01-13T04:55:26.497Z,93.60
2023-01-13T04:56:26.492Z,92.78
2023-01-13T04:57:26.485Z,94.64
2023-01-13T04:58:26.496Z,93.65
2023-01-13T04:59:26.458Z,92.82
2023-01-13T05:00:26.453Z,93.13
2023-01-13T05:01:26.566Z,93.03
2023-01-13T05:02:26.431Z,93.40
2023-01-13T05:03:26.443Z,92.61
2023-01-13T05:04:26.447Z,93.54
2023-01-13T05:05:26.396Z,94.27
2023-01-13T05:06:26.393Z,93.96
2023-01-13T05:07:26.377Z,92.10
2023-01-13T05:08:26.396Z,93.03
2023-01-13T05:09:26.351Z,93.75
2023-01-13T05:10:26.353Z,91.48
2023-01-13T05:11:26.335Z,91.89
2023-01-13T05:12:26.329Z,90.66
2023-01-13T05:13:26.346Z,90.45
2023-01-13T05:14:26.305Z,88.90
2023-01-13T05:15:26.297Z,89.42
2023-01-13T05:16:26.319Z,90.14
2023-01-13T05:17:26.277Z,89.52
2023-01-13T05:18:26.321Z,90.86
2023-01-13T05:19:26.250Z,89.32
2023-01-13T05:20:26.247Z,90.25
2023-01-13T05:21:26.231Z,90.55
2023-01-13T05:22:26.255Z,90.14
2023-01-13T05:23:26.234Z,91.11
2023-01-13T05:24:26.207Z,90.70
2023-01-13T05:25:26.188Z,91.52
2023-01-13T05:26:26.188Z,90.91
2023-01-13T05:27:26.174Z,90.70
2023-01-13T05:28:26.196Z,90.28
2023-01-13T05:29:26.148Z,91.89
2023-01-13T05:30:26.156Z,93.49
2023-01-13T05:31:26.160Z,92.76
2023-01-13T05:32:26.127Z,92.66
2023-01-13T05:33:26.149Z,93.03
2023-01-13T05:34:26.104Z,92.25
2023-01-13T05:35:26.092Z,92.51
2023-01-13T05:36:26.126Z,93.65
2023-01-13T05:37:26.069Z,94.37
2023-01-13T05:38:26.081Z,94.47
2023-01-13T05:39:26.050Z,94.57
2023-01-13T05:40:26.046Z,94.68
2023-01-13T05:41:26.028Z,94.06
2023-01-13T05:42:26.025Z,94.47
2023-01-13T05:43:26.018Z,94.89
2023-01-13T05:44:26.009Z,94.37
2023-01-13T05:45:25.985Z,95.09
2023-01-13T05:46:26.115Z,95.40
2023-01-13T05:47:25.966Z,94.06
2023-01-13T05:48:25.979Z,95.09
2023-01-13T05:49:25.953Z,94.68
2023-01-13T05:50:25.937Z,93.13
2023-01-13T05:51:25.929Z,93.54
2023-01-13T05:52:25.920Z,94.12
2023-01-13T05:53:25.921Z,93.96
2023-01-13T05:54:25.920Z,94.06
2023-01-13T05:55:25.882Z,93.75
2023-01-13T05:56:25.879Z,93.03
2023-01-13T05:57:25.872Z,92.93
2023-01-13T05:58:25.878Z,90.35
2023-01-13T05:59:25.841Z,91.69
2023-01-13T06:00:25.837Z,91.28
2023-01-13T06:01:25.882Z,91.69
2023-01-13T06:02:25.820Z,91.79
2023-01-13T06:03:25.831Z,91.38
2023-01-13T06:04:25.815Z,93.13
2023-01-13T06:05:25.778Z,92.93
2023-01-13T06:06:25.787Z,91.73
2023-01-13T06:07:25.767Z,91.73
2023-01-13T06:08:25.765Z,91.63
2023-01-13T06:09:25.755Z,92.04
2023-01-13T06:10:25.737Z,92.86
2023-01-13T06:11:25.722Z,93.38
2023-01-13T06:12:25.718Z,94.72
2023-01-13T06:13:25.734Z,93.79
2023-01-13T06:14:25.701Z,94.35
2023-01-13T06:15:25.682Z,94.25
2023-01-13T06:16:25.713Z,94.04
2023-01-13T06:17:25.657Z,93.84
2023-01-13T06:18:25.674Z,93.12
2023-01-13T06:19:25.671Z,94.25
2023-01-13T06:20:25.659Z,93.53
2023-01-13T06:21:25.619Z,93.73
2023-01-13T06:22:25.615Z,93.26
2023-01-13T06:23:25.604Z,93.22
2023-01-13T06:24:25.603Z,93.57
2023-01-13T06:25:25.575Z,94.09
2023-01-13T06:26:25.569Z,93.47
2023-01-13T06:27:25.566Z,93.98
2023-01-13T06:28:25.565Z,93.88
2023-01-13T06:29:25.552Z,93.16
2023-01-13T06:30:25.531Z,93.98
2023-01-13T06:31:25.551Z,94.29
2023-01-13T06:32:25.510Z,93.78
2023-01-13T06:33:25.493Z,93.78
2023-01-13T06:34:25.516Z,93.98
2023-01-13T06:35:25.470Z,93.98
2023-01-13T06:36:25.470Z,93.88
2023-01-13T06:37:25.444Z,93.57
2023-01-13T06:38:25.460Z,94.19
2023-01-13T06:39:25.502Z,93.88
2023-01-13T06:40:25.435Z,94.19
2023-01-13T06:41:25.406Z,94.40
2023-01-13T06:42:25.408Z,95.12
2023-01-13T06:43:25.406Z,94.50
2023-01-13T06:44:25.416Z,93.98
2023-01-13T06:45:25.369Z,94.60
2023-01-13T06:46:25.376Z,94.29
2023-01-13T06:47:25.297Z,94.44
2023-01-13T06:48:25.301Z,94.54
2023-01-13T06:49:25.294Z,95.06
2023-01-13T06:50:25.280Z,94.85
2023-01-13T06:51:25.251Z,95.27
2023-01-13T06:52:25.252Z,95.17
2023-01-13T06:53:25.237Z,95.62
2023-01-13T06:54:27.632Z,95.21
2023-01-13T06:55:25.224Z,95.31
2023-01-13T06:56:25.204Z,95.62
2023-01-13T06:57:25.191Z,95.94
2023-01-13T06:58:25.209Z,95.62
2023-01-13T06:59:25.177Z,95.52
2023-01-13T07:00:25.243Z,95.62
2023-01-13T07:01:25.346Z,96.03
2023-01-13T07:02:25.304Z,96.14
2023-01-13T07:03:25.135Z,96.29
2023-01-13T07:04:25.139Z,96.39
2023-01-13T07:05:25.113Z,96.49
2023-01-13T07:06:25.137Z,96.70
2023-01-13T07:07:25.089Z,96.70
2023-01-13T07:08:25.131Z,96.80
2023-01-13T07:09:25.105Z,96.85
2023-01-13T07:10:25.059Z,97.06
2023-01-13T07:11:25.047Z,97.16
2023-01-13T07:12:25.041Z,97.06
2023-01-13T07:13:25.025Z,97.47
2023-01-13T07:14:25.029Z,97.47
2023-01-13T07:15:25.004Z,97.67
2023-01-13T07:16:25.075Z,97.88
2023-01-13T07:17:25.003Z,97.99
2023-01-13T07:18:24.997Z,97.88
2023-01-13T07:19:24.981Z,98.09
2023-01-13T07:20:24.957Z,98.40
2023-01-13T07:21:24.939Z,97.88
2023-01-13T07:22:24.952Z,97.78
2023-01-13T07:23:24.945Z,97.84
2023-01-13T07:24:24.973Z,97.42
2023-01-13T07:25:24.903Z,96.91
2023-01-13T07:26:24.895Z,97.01
2023-01-13T07:27:24.879Z,96.66
2023-01-13T07:28:24.878Z,96.86
2023-01-13T07:29:24.907Z,96.86
2023-01-13T07:30:24.861Z,96.66
2023-01-13T07:31:24.876Z,96.14
2023-01-13T07:32:24.840Z,96.24
2023-01-13T07:33:24.823Z,96.14
2023-01-13T07:34:24.941Z,96.24
2023-01-13T07:35:24.800Z,96.66
2023-01-13T07:36:24.840Z,96.66
2023-01-13T07:37:24.784Z,97.07
2023-01-13T07:38:24.775Z,97.11
2023-01-13T07:39:24.789Z,97.01
2023-01-13T07:40:24.769Z,97.22
2023-01-13T07:41:24.765Z,97.22
2023-01-13T07:42:24.730Z,97.11
2023-01-13T07:43:24.729Z,97.32
2023-01-13T07:44:24.754Z,97.22
2023-01-13T07:45:24.736Z,97.01
2023-01-13T07:46:24.715Z,97.11
2023-01-13T07:47:24.675Z,96.59
2023-01-13T07:48:24.674Z,96.59
2023-01-13T07:49:24.657Z,96.39
2023-01-13T07:50:24.664Z,96.29
2023-01-13T07:51:24.653Z,96.29
2023-01-13T07:52:24.635Z,96.19
2023-01-13T07:53:24.636Z,95.98
2023-01-13T07:54:39.055Z,96.08
2023-01-13T07:55:24.617Z,95.67
2023-01-13T07:56:24.607Z,96.39
2023-01-13T07:57:24.587Z,96.08
2023-01-13T07:58:24.585Z,95.98
2023-01-13T07:59:24.668Z,96.19
2023-01-13T08:00:24.559Z,96.19
2023-01-13T08:01:24.711Z,96.29
2023-01-13T08:02:24.705Z,96.39
2023-01-13T08:03:24.564Z,96.19
2023-01-13T08:04:24.544Z,95.98
2023-01-13T08:05:24.496Z,95.77
2023-01-13T08:06:24.489Z,95.87
2023-01-13T08:07:24.496Z,95.77
2023-01-13T08:08:24.481Z,95.36
2023-01-13T08:09:24.484Z,95.36
2023-01-13T08:10:24.519Z,95.36
2023-01-13T08:11:24.439Z,95.36
2023-01-13T08:12:24.447Z,95.15
2023-01-13T08:13:24.417Z,95.15
2023-01-13T08:14:24.451Z,95.25
2023-01-13T08:15:24.408Z,95.04
2023-01-13T08:16:24.498Z,94.94
2023-01-13T08:17:24.390Z,94.84
2023-01-13T08:18:24.424Z,94.84
2023-01-13T08:19:24.417Z,94.84
2023-01-13T08:20:24.349Z,94.63
2023-01-13T08:21:24.376Z,94.38
2023-01-13T08:22:24.334Z,94.69
2023-01-13T08:23:24.312Z,94.38
2023-01-13T08:24:24.345Z,94.18
2023-01-13T08:25:24.321Z,94.38
2023-01-13T08:26:24.293Z,94.18
2023-01-13T08:27:24.281Z,93.87
2023-01-13T08:28:24.267Z,93.76
2023-01-13T08:29:24.290Z,93.76
2023-01-13T08:30:24.296Z,94.07
2023-01-13T08:31:24.260Z,93.45
2023-01-13T08:32:24.228Z,93.55
2023-01-13T08:33:24.213Z,93.24
2023-01-13T08:34:24.221Z,93.51
2023-01-13T08:35:24.230Z,93.62
2023-01-13T08:36:24.177Z,93.62
2023-01-13T08:37:24.236Z,93.62
2023-01-13T08:38:24.291Z,93.10
2023-01-13T08:39:24.317Z,92.99
2023-01-13T08:40:24.183Z,92.27
2023-01-13T08:41:24.145Z,90.99
2023-01-13T08:42:24.117Z,91.30
2023-01-13T08:43:24.138Z,91.71
2023-01-13T08:44:24.114Z,91.92
2023-01-13T08:45:24.097Z,91.71
2023-01-13T08:46:24.103Z,90.89
2023-01-13T08:47:24.083Z,91.30
2023-01-13T08:48:24.065Z,91.40
2023-01-13T08:49:24.065Z,91.82
2023-01-13T08:50:24.063Z,91.30
2023-01-13T08:51:24.046Z,91.05
2023-01-13T08:52:24.016Z,90.84
2023-01-13T08:53:24.014Z,91.26
2023-01-13T08:54:24.026Z,90.64
2023-01-13T08:55:23.995Z,90.22
2023-01-13T08:56:23.978Z,90.74
2023-01-13T08:57:24.091Z,90.02
2023-01-13T08:58:23.969Z,90.12
2023-01-13T08:59:23.977Z,89.92
2023-01-13T09:00:23.952Z,89.92
2023-01-13T09:01:24.051Z,89.56
2023-01-13T09:02:24.038Z,89.67
2023-01-13T09:03:23.912Z,89.15
2023-01-13T09:04:23.982Z,88.32
2023-01-13T09:05:23.890Z,88.70
2023-01-13T09:06:23.870Z,88.80
2023-01-13T09:07:23.868Z,88.29
2023-01-13T09:08:23.855Z,88.59
2023-01-13T09:09:23.898Z,88.29
2023-01-13T09:10:23.830Z,88.49
2023-01-13T09:11:23.826Z,87.98
2023-01-13T09:12:23.817Z,88.08
2023-01-13T09:13:23.847Z,87.56
2023-01-13T09:14:23.811Z,87.46
2023-01-13T09:15:23.805Z,87.21
2023-01-13T09:16:23.784Z,87.52
2023-01-13T09:17:23.774Z,86.80
2023-01-13T09:18:23.898Z,86.97
2023-01-13T09:19:23.756Z,86.04
2023-01-13T09:20:23.751Z,84.59
2023-01-13T09:21:23.741Z,85.69
2023-01-13T09:22:23.718Z,85.07
2023-01-13T09:23:23.705Z,84.83
2023-01-13T09:24:23.710Z,84.72
2023-01-13T09:25:23.694Z,85.75
2023-01-13T09:26:23.675Z,84.93
2023-01-13T09:27:23.688Z,84.48
2023-01-13T09:28:23.700Z,83.49
2023-01-13T09:29:23.656Z,84.11
2023-01-13T09:30:23.713Z,83.59
2023-01-13T09:31:23.660Z,85.44
2023-01-13T09:32:23.630Z,83.84
2023-01-13T09:33:23.624Z,85.44
2023-01-13T09:34:23.603Z,84.97
2023-01-13T09:35:23.583Z,83.53
2023-01-13T09:36:23.591Z,83.12
2023-01-13T09:37:23.572Z,82.05
2023-01-13T09:38:23.543Z,82.56
2023-01-13T09:39:23.604Z,81.95
2023-01-13T09:40:23.607Z,81.53
2023-01-13T09:41:23.516Z,80.51
2023-01-13T09:42:23.554Z,80.61
2023-01-13T09:43:23.493Z,80.61
2023-01-13T09:44:23.485Z,79.64
2023-01-13T09:45:23.527Z,79.23
2023-01-13T09:46:23.481Z,79.13
2023-01-13T09:47:23.468Z,79.75
2023-01-13T09:48:23.448Z,80.47
2023-01-13T09:49:23.433Z,79.33
2023-01-13T09:50:23.436Z,78.82
2023-01-13T09:51:23.443Z,78.30
2023-01-13T09:52:25.846Z,78.47
2023-01-13T09:53:23.503Z,77.96
2023-01-13T09:54:23.385Z,77.86
2023-01-13T09:55:23.395Z,79.09
2023-01-13T09:56:23.361Z,77.92
2023-01-13T09:57:23.365Z,77.62
2023-01-13T09:58:23.336Z,75.97
2023-01-13T09:59:23.347Z,76.90
2023-01-13T10:00:23.359Z,77.31
2023-01-13T10:01:23.979Z,77.41
2023-01-13T10:02:23.315Z,77.41
2023-01-13T10:03:23.327Z,79.36
2023-01-13T10:04:23.337Z,76.73
2023-01-13T10:05:23.273Z,77.03
2023-01-13T10:06:23.258Z,75.80
2023-01-13T10:07:23.290Z,75.70
2023-01-13T10:08:23.275Z,76.11
2023-01-13T10:09:23.233Z,77.34
2023-01-13T10:10:23.260Z,78.68
2023-01-13T10:11:23.212Z,77.65
2023-01-13T10:12:23.315Z,75.63
2023-01-13T10:13:23.231Z,76.31
2023-01-13T10:14:23.229Z,77.38
2023-01-13T10:15:23.178Z,77.24
2023-01-13T10:16:23.183Z,80.53
2023-01-13T10:17:23.179Z,76.25
2023-01-13T10:18:23.135Z,76.04
2023-01-13T10:19:23.145Z,77.89
2023-01-13T10:20:23.134Z,75.12
2023-01-13T10:21:23.107Z,76.25
2023-01-13T10:22:23.285Z,76.62
2023-01-13T10:23:23.113Z,76.14
2023-01-13T10:24:23.085Z,76.35
2023-01-13T10:25:23.131Z,76.25
2023-01-13T10:26:23.075Z,76.25
2023-01-13T10:27:23.074Z,76.21
2023-01-13T10:28:23.038Z,76.04
2023-01-13T10:29:23.027Z,75.63
2023-01-13T10:30:23.042Z,76.25
2023-01-13T10:31:23.112Z,73.57
2023-01-13T10:32:22.999Z,74.70
2023-01-13T10:33:22.988Z,76.01
2023-01-13T10:34:22.972Z,76.11
2023-01-13T10:35:22.979Z,75.59
2023-01-13T10:36:23.096Z,74.26
2023-01-13T10:37:22.965Z,74.57
2023-01-13T10:38:22.987Z,73.02
2023-01-13T10:39:22.933Z,73.74
2023-01-13T10:40:22.924Z,73.64
2023-01-13T10:41:22.917Z,73.64
2023-01-13T10:42:22.959Z,73.74
2023-01-13T10:43:22.936Z,75.39
2023-01-13T10:44:22.892Z,75.76
2023-01-13T10:45:22.880Z,74.53
2023-01-13T10:46:22.938Z,74.22
2023-01-13T10:47:22.918Z,75.46
2023-01-13T10:48:22.855Z,75.15
2023-01-13T10:49:22.831Z,73.61
2023-01-13T10:50:22.859Z,73.85
2023-01-13T10:51:22.805Z,73.50
2023-01-13T10:52:22.848Z,73.81
2023-01-13T10:53:22.800Z,74.02
2023-01-13T10:54:22.775Z,75.35
2023-01-13T10:55:22.842Z,72.99
2023-01-13T10:56:22.808Z,73.30
2023-01-13T10:57:22.772Z,72.78
2023-01-13T10:58:22.725Z,73.09
2023-01-13T10:59:22.720Z,71.86
2023-01-13T11:00:22.726Z,72.27
2023-01-13T11:01:22.842Z,72.13
2023-01-13T11:02:26.936Z,72.17
2023-01-13T11:03:22.682Z,72.78
2023-01-13T11:04:22.747Z,71.96
2023-01-13T11:05:22.759Z,71.04
2023-01-13T11:06:22.645Z,70.73
2023-01-13T11:07:22.665Z,71.34
2023-01-13T11:08:22.651Z,72.06
2023-01-13T11:09:22.612Z,72.68
2023-01-13T11:10:22.626Z,71.96
2023-01-13T11:11:22.603Z,72.99
2023-01-13T11:12:22.590Z,71.66
2023-01-13T11:13:22.597Z,73.09
2023-01-13T11:14:22.564Z,72.47
2023-01-13T11:15:22.568Z,74.02
2023-01-13T11:16:22.602Z,73.19
2023-01-13T11:17:22.547Z,73.30
2023-01-13T11:18:22.535Z,73.50
2023-01-13T11:19:22.592Z,73.19
2023-01-13T11:20:22.533Z,73.71
2023-01-13T11:21:22.505Z,74.12
2023-01-13T11:22:22.477Z,74.95
2023-01-13T11:23:22.475Z,76.18
2023-01-13T11:24:22.461Z,73.81
2023-01-13T11:25:22.700Z,74.22
2023-01-13T11:26:22.528Z,74.63
2023-01-13T11:27:22.458Z,74.95
2023-01-13T11:28:22.430Z,74.22
2023-01-13T11:29:22.435Z,75.97
2023-01-13T11:30:22.448Z,75.25
2023-01-13T11:31:22.416Z,75.25
2023-01-13T11:32:22.381Z,75.35
2023-01-13T11:33:22.372Z,74.74
2023-01-13T11:34:22.499Z,76.07
2023-01-13T11:35:22.387Z,75.04
2023-01-13T11:36:22.342Z,74.22
2023-01-13T11:37:22.335Z,72.99
2023-01-13T11:38:22.322Z,72.17
2023-01-13T11:39:22.322Z,71.00
2023-01-13T11:40:22.335Z,71.62
2023-01-13T11:41:22.328Z,71.41
2023-01-13T11:42:22.333Z,71.31
2023-01-13T11:43:22.278Z,71.00
2023-01-13T11:44:22.356Z,71.00
2023-01-13T11:45:22.317Z,70.66
2023-01-13T11:46:22.268Z,70.46
2023-01-13T11:47:22.292Z,69.74
2023-01-13T11:48:22.231Z,70.46
2023-01-13T11:49:22.550Z,70.15
2023-01-13T11:50:22.294Z,70.97
2023-01-13T11:51:22.185Z,69.15
2023-01-13T11:52:22.290Z,70.08
2023-01-13T11:53:22.235Z,70.49
2023-01-13T11:54:22.157Z,70.28
2023-01-13T11:55:22.816Z,70.28
2023-01-13T11:56:22.152Z,72.41
2023-01-13T11:57:22.145Z,72.41
2023-01-13T11:58:22.146Z,71.89
2023-01-13T11:59:22.111Z,73.02
2023-01-13T12:00:22.134Z,71.41
2023-01-13T12:01:23.393Z,71.72
2023-01-13T12:02:22.108Z,71.11
2023-01-13T12:03:22.155Z,72.75
2023-01-13T12:04:22.070Z,71.83
2023-01-13T12:05:22.075Z,71.86
2023-01-13T12:06:22.055Z,71.55
2023-01-13T12:07:23.258Z,72.47
2023-01-13T12:08:22.045Z,72.78
2023-01-13T12:09:22.013Z,72.47
2023-01-13T12:10:22.004Z,72.38
2023-01-13T12:11:21.989Z,72.06
2023-01-13T12:12:21.974Z,73.71
2023-01-13T12:13:21.977Z,73.40
2023-01-13T12:14:21.974Z,73.30
2023-01-13T12:15:21.980Z,73.33
2023-01-13T12:16:21.970Z,74.33
2023-01-13T12:17:21.931Z,74.12
2023-01-13T12:18:21.909Z,73.50
2023-01-13T12:19:21.906Z,74.95
2023-01-13T12:20:21.912Z,74.63
2023-01-13T12:21:21.884Z,72.68
2023-01-13T12:22:21.894Z,72.99
2023-01-13T12:23:21.860Z,71.96
2023-01-13T12:24:21.868Z,71.96
2023-01-13T12:25:21.872Z,72.24
2023-01-13T12:26:21.842Z,71.04
2023-01-13T12:27:21.820Z,71.41
2023-01-13T12:28:21.867Z,72.17
2023-01-13T12:29:22.036Z,71.31
2023-01-13T12:30:21.947Z,72.03
2023-01-13T12:31:21.860Z,70.79
2023-01-13T12:32:21.765Z,70.70
2023-01-13T12:33:21.764Z,70.97
2023-01-13T12:34:21.752Z,70.04
2023-01-13T12:35:21.760Z,70.12
2023-01-13T12:36:21.718Z,69.50
2023-01-13T12:37:21.712Z,69.98
2023-01-13T12:38:21.710Z,68.24
2023-01-13T12:39:21.707Z,69.26
2023-01-13T12:40:21.765Z,70.05
2023-01-13T12:41:21.680Z,68.51
2023-01-13T12:42:21.656Z,66.25
2023-01-13T12:43:21.750Z,67.08
2023-01-13T12:44:21.647Z,67.28
2023-01-13T12:45:21.659Z,66.97
2023-01-13T12:46:21.675Z,66.63
2023-01-13T12:47:21.615Z,67.14
2023-01-13T12:48:21.612Z,65.64
2023-01-13T12:49:21.613Z,66.05
2023-01-13T12:50:21.808Z,66.33
2023-01-13T12:51:21.588Z,67.05
2023-01-13T12:52:21.559Z,67.76